首页
METAR-TAF:

METAR-TAF

机场 :

Fort Belvoir, 弗吉尼亚州, 美国

纬度: 38-43N, 经度: 077-11W, 海拔: 21米

当前天气观测

该预报发布于57分钟前的01:56 UTC
静风
温度 23°C
湿度 83%
气压 1018 hPa
能見度: 16.1公里
天空无云

METAR: KDAA 270156Z AUTO 00000KT 10SM CLR 23/20 A3007 RMK AO2 SLP185 T02280195 $

时间: 22:53 (02:53 UTC)

预报

该预报发布于1小时和53分钟前的01:00 UTC
预报有效从27日的 01点(UTC)到 28日的 07点(UTC)
风速6节,风向多变
能见度10公里或以上
少量云层高于5000英尺
成为
从 27日的 13点(UTC)到 27日的 14点(UTC)
风速6节,风向西转西北
能見度: 2709
天空无云

TAF: KDAA 270100Z 2701/2807 VRB06KT 9999 FEW050 QNH3002INS BECMG 2713/2714 33012KT 9999 SKC QNH3010INS WND 30006KT AFT 2800 TX33/2720Z TN25/2708Z LAST NO AMDS AFT 2701 NEXT 2709

超过4000个机场的气象观测和天气预报(METAR&TAF报告)。

可查询的气象台以黄色和红色小点在地图上表示。

将鼠标移到小点上方,可查看气象台名称。

然后点击查看天气观测和预报。

如需切换地图:点击带黑十字的绿色按钮放大地图;点击带横线的绿色按钮缩小地图;或者点击绿色箭头查看邻近地区的地图。


METAR-TAF: